createdAt,value
2019-04-05T00:00:51.847Z,8.48
2019-04-05T00:03:24.718Z,9.00
2019-04-05T00:05:54.807Z,8.30
2019-04-05T00:08:24.412Z,8.68
2019-04-05T00:10:55.411Z,8.95
2019-04-05T00:13:24.419Z,8.43
2019-04-05T00:15:54.533Z,8.40
2019-04-05T00:18:23.750Z,8.55
2019-04-05T00:20:57.431Z,9.30
2019-04-05T00:23:26.774Z,8.90
2019-04-05T00:25:55.950Z,9.70
2019-04-05T00:28:25.222Z,8.83
2019-04-05T00:30:54.694Z,8.60
2019-04-05T00:33:24.634Z,9.00
2019-04-05T00:35:53.663Z,8.58
2019-04-05T00:38:23.970Z,8.83
2019-04-05T00:40:53.050Z,9.58
2019-04-05T00:43:22.227Z,8.43
2019-04-05T00:45:51.375Z,8.90
2019-04-05T00:48:20.528Z,8.58
2019-04-05T00:50:52.591Z,8.83
2019-04-05T00:53:21.815Z,9.98
2019-04-05T00:55:50.816Z,8.55
2019-04-05T00:58:19.783Z,9.43
2019-04-05T01:00:48.711Z,8.80
2019-04-05T01:03:17.775Z,9.33
2019-04-05T01:05:46.783Z,9.08
2019-04-05T01:08:15.747Z,9.28
2019-04-05T01:10:44.690Z,9.60
2019-04-05T01:13:13.702Z,9.30
2019-04-05T01:15:42.738Z,9.55
2019-04-05T01:18:11.742Z,9.03
2019-04-05T01:20:40.682Z,9.60
2019-04-05T01:23:09.734Z,8.86
2019-04-05T01:25:38.718Z,9.30
2019-04-05T01:28:07.794Z,8.65
2019-04-05T01:30:36.750Z,9.10
2019-04-05T01:33:05.734Z,9.15
2019-04-05T01:35:34.602Z,9.15
2019-04-05T01:38:03.735Z,9.43
2019-04-05T01:40:32.717Z,9.58
2019-04-05T01:43:01.770Z,9.08
2019-04-05T01:45:30.718Z,9.53
2019-04-05T01:47:59.637Z,9.10
2019-04-05T01:50:28.582Z,9.05
2019-04-05T01:52:57.835Z,9.30
2019-04-05T01:55:27.159Z,8.88
2019-04-05T01:57:56.418Z,8.98
2019-04-05T02:00:25.734Z,8.85
2019-04-05T02:02:54.974Z,9.93
2019-04-05T02:05:23.941Z,9.25
2019-04-05T02:07:53.010Z,8.98
2019-04-05T02:10:22.575Z,9.33
2019-04-05T02:12:51.463Z,9.48
2019-04-05T02:15:25.051Z,9.70
2019-04-05T02:17:53.978Z,9.20
2019-04-05T02:20:22.956Z,9.33
2019-04-05T02:22:52.170Z,9.05
2019-04-05T02:25:21.137Z,8.53
2019-04-05T02:27:50.169Z,8.95
2019-04-05T02:30:19.126Z,9.10
2019-04-05T02:32:48.486Z,9.10
2019-04-05T02:35:17.401Z,9.60
2019-04-05T02:37:46.323Z,9.40
2019-04-05T02:40:15.305Z,9.03
2019-04-05T02:42:45.244Z,8.75
2019-04-05T02:45:14.162Z,9.00
2019-04-05T02:47:43.135Z,9.23
2019-04-05T02:50:12.119Z,9.50
2019-04-05T02:52:41.311Z,8.83
2019-04-05T02:55:10.307Z,9.33
2019-04-05T02:57:40.518Z,8.68
2019-04-05T03:00:09.474Z,8.60
2019-04-05T03:02:38.617Z,9.20
2019-04-05T03:05:07.561Z,8.55
2019-04-05T03:07:36.534Z,8.50
2019-04-05T03:10:05.589Z,8.68
2019-04-05T03:12:34.591Z,9.60
2019-04-05T03:15:03.859Z,9.15
2019-04-05T03:17:33.157Z,8.93
2019-04-05T03:20:02.074Z,9.25
2019-04-05T03:22:31.133Z,9.20
2019-04-05T03:25:00.554Z,9.03
2019-04-05T03:27:29.657Z,9.68
2019-04-05T03:29:58.566Z,9.88
2019-04-05T03:32:27.597Z,9.23
2019-04-05T03:34:57.159Z,9.75
2019-04-05T03:37:26.113Z,9.90
2019-04-05T03:39:55.158Z,9.90
2019-04-05T03:42:24.441Z,9.45
2019-04-05T03:44:53.409Z,9.33
2019-04-05T03:47:22.406Z,9.70
2019-04-05T03:49:51.498Z,9.53
2019-04-05T03:52:21.145Z,9.43
2019-04-05T03:54:50.172Z,10.35
2019-04-05T03:57:19.081Z,9.53
2019-04-05T03:59:48.329Z,9.25
2019-04-05T04:02:17.240Z,9.53
2019-04-05T04:04:46.719Z,9.95
2019-04-05T04:07:15.985Z,9.05
2019-04-05T04:09:44.832Z,9.58
2019-04-05T04:12:14.030Z,9.60
2019-04-05T04:14:43.129Z,9.65
2019-04-05T04:17:13.503Z,9.90
2019-04-05T04:19:41.117Z,9.23
2019-04-05T04:22:17.865Z,11.23
2019-04-05T04:24:48.986Z,9.35
2019-04-05T04:27:18.100Z,10.40
2019-04-05T04:29:47.010Z,10.32
2019-04-05T04:32:15.883Z,10.07
2019-04-05T04:34:44.925Z,10.32
2019-04-05T04:37:13.744Z,9.65
2019-04-05T04:39:42.857Z,9.63
2019-04-05T04:42:12.609Z,8.97
2019-04-05T04:44:43.589Z,9.00
2019-04-05T04:47:25.798Z,8.53
2019-04-05T04:49:41.510Z,9.05
2019-04-05T04:52:10.417Z,10.80
2019-04-05T04:54:39.393Z,9.85
2019-04-05T04:57:08.816Z,9.20
2019-04-05T04:59:37.672Z,9.80
2019-04-05T05:02:06.595Z,9.43
2019-04-05T05:04:35.832Z,9.50
2019-04-05T05:07:05.910Z,9.00
2019-04-05T05:09:35.212Z,9.45
2019-04-05T05:12:05.097Z,9.88
2019-04-05T05:14:33.996Z,9.53
2019-04-05T05:17:03.112Z,9.10
2019-04-05T05:19:32.400Z,9.18
2019-04-05T05:22:01.116Z,9.28
2019-04-05T05:24:30.047Z,8.95
2019-04-05T05:26:58.752Z,9.33
2019-04-05T05:29:27.523Z,9.53
2019-04-05T05:31:56.396Z,9.30
2019-04-05T05:34:25.280Z,9.13
2019-04-05T05:36:54.148Z,9.83
2019-04-05T05:39:23.120Z,10.13
2019-04-05T05:41:51.844Z,10.23
2019-04-05T05:44:20.616Z,9.40
2019-04-05T05:46:49.380Z,10.32
2019-04-05T05:49:18.061Z,10.43
2019-04-05T05:51:47.528Z,9.53
2019-04-05T05:54:16.776Z,8.50
2019-04-05T05:56:45.380Z,10.13
2019-04-05T05:59:14.447Z,9.73
2019-04-05T06:01:43.171Z,9.63
2019-04-05T06:04:12.856Z,9.97
2019-04-05T06:06:40.632Z,9.05
2019-04-05T06:09:09.480Z,9.73
2019-04-05T06:11:38.216Z,9.00
2019-04-05T06:14:07.393Z,9.73
2019-04-05T06:19:05.737Z,8.88
2019-04-05T06:21:34.414Z,10.25
2019-04-05T06:24:05.254Z,9.53
2019-04-05T06:26:32.475Z,9.78
2019-04-05T06:29:01.246Z,9.28
2019-04-05T06:31:30.012Z,9.73
2019-04-05T06:33:58.801Z,9.85
2019-04-05T06:35:39.441Z,9.15
2019-04-05T06:36:28.039Z,9.48
2019-04-05T06:38:56.760Z,10.00
2019-04-05T06:41:25.492Z,9.73
2019-04-05T06:43:54.560Z,9.78
2019-04-05T06:46:23.359Z,9.13
2019-04-05T06:48:52.395Z,10.43
2019-04-05T06:51:21.208Z,10.40
2019-04-05T06:53:50.142Z,10.68
2019-04-05T06:56:18.999Z,9.37
2019-04-05T06:58:47.839Z,10.43
2019-04-05T07:01:16.928Z,9.78
2019-04-05T07:03:45.812Z,10.25
2019-04-05T07:06:14.543Z,9.68
2019-04-05T07:08:53.123Z,9.08
2019-04-05T07:11:12.148Z,9.50
2019-04-05T07:13:41.915Z,9.68
2019-04-05T07:16:11.337Z,9.65
2019-04-05T07:18:40.079Z,9.83
2019-04-05T07:21:08.899Z,9.83
2019-04-05T07:23:37.655Z,10.13
2019-04-05T07:26:06.471Z,9.88
2019-04-05T07:28:35.276Z,9.30
2019-04-05T07:31:05.359Z,9.15
2019-04-05T07:33:34.091Z,9.88
2019-04-05T07:36:03.638Z,10.03
2019-04-05T07:38:31.607Z,9.40
2019-04-05T07:41:00.431Z,9.58
2019-04-05T07:43:29.311Z,11.20
2019-04-05T07:45:58.400Z,9.88
2019-04-05T07:48:27.166Z,10.40
2019-04-05T07:50:55.966Z,10.25
2019-04-05T07:53:24.759Z,10.50
2019-04-05T07:55:53.731Z,9.33
2019-04-05T07:58:22.595Z,9.45
2019-04-05T08:00:53.735Z,10.08
2019-04-05T08:03:22.603Z,9.50
2019-04-05T08:05:51.403Z,10.03
2019-04-05T08:08:29.615Z,10.23
2019-04-05T08:10:58.471Z,10.28
2019-04-05T08:13:38.541Z,10.48
2019-04-05T08:16:07.450Z,10.43
2019-04-05T08:18:36.214Z,10.25
2019-04-05T08:21:05.337Z,10.58
2019-04-05T08:23:34.378Z,11.45
2019-04-05T08:26:03.207Z,10.80
2019-04-05T08:28:32.407Z,10.18
2019-04-05T08:31:01.511Z,11.08
2019-04-05T08:33:30.194Z,10.68
2019-04-05T08:35:59.187Z,10.40
2019-04-05T08:38:28.247Z,11.28
2019-04-05T08:40:57.166Z,11.20
2019-04-05T08:43:25.938Z,10.93
2019-04-05T08:45:55.319Z,10.72
2019-04-05T08:48:24.150Z,10.85
2019-04-05T08:50:52.931Z,11.33
2019-04-05T08:53:21.738Z,11.38
2019-04-05T08:55:50.562Z,9.80
2019-04-05T08:58:32.907Z,10.78
2019-04-05T09:00:51.083Z,10.03
2019-04-05T09:03:20.138Z,10.53
2019-04-05T09:05:48.858Z,10.40
2019-04-05T09:08:17.711Z,11.20
2019-04-05T09:10:46.542Z,11.03
2019-04-05T09:13:15.334Z,10.90
2019-04-05T09:15:44.383Z,11.03
2019-04-05T09:18:13.230Z,10.50
2019-04-05T09:20:42.050Z,11.28
2019-04-05T09:23:10.954Z,10.75
2019-04-05T09:25:39.777Z,11.37
2019-04-05T09:28:08.630Z,11.90
2019-04-05T09:30:37.433Z,10.58
2019-04-05T09:33:06.664Z,11.10
2019-04-05T09:35:35.502Z,11.73
2019-04-05T09:38:05.054Z,11.65
2019-04-05T09:40:34.534Z,11.45
2019-04-05T09:43:03.598Z,11.15
2019-04-05T09:45:32.794Z,11.43
2019-04-05T09:48:02.339Z,11.68
2019-04-05T09:50:31.215Z,11.78
2019-04-05T09:53:00.334Z,11.60
2019-04-05T09:55:29.250Z,11.17
2019-04-05T09:57:58.110Z,11.45
2019-04-05T10:00:27.441Z,11.25
2019-04-05T10:02:56.314Z,11.83
2019-04-05T10:05:25.154Z,11.30
2019-04-05T10:07:55.627Z,11.65
2019-04-05T10:10:23.416Z,12.70
2019-04-05T10:12:52.597Z,12.50
2019-04-05T10:15:21.904Z,11.80
2019-04-05T10:17:50.378Z,11.78
2019-04-05T10:20:19.270Z,12.05
2019-04-05T10:22:48.046Z,11.65
2019-04-05T10:25:17.150Z,11.70
2019-04-05T10:27:45.994Z,11.90
2019-04-05T10:30:14.946Z,11.38
2019-04-05T10:32:46.087Z,11.93
2019-04-05T10:35:12.697Z,11.20
2019-04-05T10:37:41.621Z,11.78
2019-04-05T10:40:10.519Z,10.60
2019-04-05T10:42:39.436Z,11.15
2019-04-05T10:45:09.862Z,11.53
2019-04-05T10:47:38.742Z,12.03
2019-04-05T10:50:08.709Z,11.53
2019-04-05T10:52:37.689Z,12.03
2019-04-05T10:55:06.702Z,11.30
2019-04-05T10:57:35.593Z,11.70
2019-04-05T11:00:05.558Z,11.05
2019-04-05T11:02:34.578Z,11.33
2019-04-05T11:05:03.482Z,11.68
2019-04-05T11:07:34.954Z,11.33
2019-04-05T11:10:01.592Z,10.60
2019-04-05T11:12:30.581Z,11.88
2019-04-05T11:14:59.381Z,11.15
2019-04-05T11:17:28.490Z,11.75
2019-04-05T11:19:57.382Z,11.08
2019-04-05T11:22:26.493Z,12.23
2019-04-05T11:24:55.345Z,11.65
2019-04-05T11:27:24.186Z,11.95
2019-04-05T11:29:53.089Z,11.57
2019-04-05T11:32:22.241Z,11.68
2019-04-05T11:34:51.130Z,12.13
2019-04-05T11:37:20.061Z,11.70
2019-04-05T11:39:48.953Z,12.28
2019-04-05T11:42:17.985Z,13.00
2019-04-05T11:44:47.037Z,11.78
2019-04-05T11:47:19.032Z,12.07
2019-04-05T11:49:45.465Z,11.63
2019-04-05T11:52:14.277Z,12.03
2019-04-05T11:54:45.647Z,13.13
2019-04-05T11:57:12.389Z,13.10
2019-04-05T11:59:41.490Z,13.45
2019-04-05T12:02:15.351Z,11.80
2019-04-05T12:04:44.197Z,11.63
2019-04-05T12:07:13.028Z,11.60
2019-04-05T12:09:41.894Z,12.70
2019-04-05T12:12:11.125Z,11.83
2019-04-05T12:14:39.980Z,12.65
2019-04-05T12:17:09.799Z,12.10
2019-04-05T12:19:38.174Z,12.68
2019-04-05T12:22:09.143Z,12.37
2019-04-05T12:24:36.119Z,12.58
2019-04-05T12:27:05.631Z,12.37
2019-04-05T12:29:34.089Z,12.75
2019-04-05T12:32:03.005Z,11.70
2019-04-05T12:34:31.900Z,12.30
2019-04-05T12:37:00.749Z,12.53
2019-04-05T12:39:30.236Z,12.50
2019-04-05T12:41:59.045Z,12.73
2019-04-05T12:44:27.864Z,12.70
2019-04-05T12:46:56.961Z,12.50
2019-04-05T12:49:25.841Z,12.45
2019-04-05T12:51:54.656Z,12.43
2019-04-05T12:54:23.821Z,12.88
2019-04-05T12:56:54.166Z,11.38
2019-04-05T12:59:25.162Z,12.27
2019-04-05T13:01:51.025Z,12.45
2019-04-05T13:04:20.625Z,13.05
2019-04-05T13:06:50.601Z,12.75
2019-04-05T13:09:17.597Z,12.50
2019-04-05T13:11:46.426Z,12.70
2019-04-05T13:14:15.260Z,11.43
2019-04-05T13:16:44.121Z,12.53
2019-04-05T13:19:12.967Z,12.18
2019-04-05T13:21:41.848Z,12.85
2019-04-05T13:24:10.724Z,12.25
2019-04-05T13:26:41.725Z,12.20
2019-04-05T13:29:08.388Z,12.20
2019-04-05T13:31:37.312Z,12.88
2019-04-05T13:34:06.460Z,12.58
2019-04-05T13:36:35.292Z,11.90
2019-04-05T13:39:06.104Z,12.30
2019-04-05T13:41:35.066Z,12.47
2019-04-05T13:44:04.044Z,12.55
2019-04-05T13:46:32.942Z,12.28
2019-04-05T13:49:01.784Z,12.33
2019-04-05T13:51:32.042Z,12.98
2019-04-05T13:53:59.724Z,12.35
2019-04-05T13:56:28.763Z,12.43
2019-04-05T13:58:57.767Z,11.95
2019-04-05T14:01:27.652Z,12.93
2019-04-05T14:03:56.536Z,11.83
2019-04-05T14:06:25.451Z,11.63
2019-04-05T14:08:54.330Z,12.07
2019-04-05T14:11:25.887Z,12.15
2019-04-05T14:13:52.539Z,10.98
2019-04-05T14:16:21.407Z,12.55
2019-04-05T14:18:50.299Z,11.80
2019-04-05T14:21:22.433Z,11.67
2019-04-05T14:23:51.287Z,12.20
2019-04-05T14:26:20.567Z,12.15
2019-04-05T14:28:54.267Z,11.65
2019-04-05T14:34:54.818Z,12.60
2019-04-05T14:37:26.743Z,12.17
2019-04-05T14:54:34.074Z,12.30
2019-04-05T14:57:05.836Z,12.25
2019-04-05T14:59:39.153Z,11.75
2019-04-05T15:02:08.217Z,11.97
2019-04-05T15:04:37.397Z,12.93
2019-04-05T15:07:06.477Z,12.28
2019-04-05T15:09:35.497Z,11.88
2019-04-05T15:15:48.246Z,12.40
2019-04-05T15:18:19.619Z,13.40
2019-04-05T15:20:48.998Z,12.47
2019-04-05T15:23:18.120Z,12.40
2019-04-05T15:25:49.571Z,12.70
2019-04-05T15:38:09.830Z,12.65
2019-04-05T15:43:16.642Z,12.55
2019-04-05T15:45:45.646Z,13.18
2019-04-05T15:48:14.386Z,12.55
2019-04-05T15:50:43.293Z,12.63
2019-04-05T15:53:12.218Z,12.82
2019-04-05T15:55:41.373Z,13.18
2019-04-05T15:58:10.546Z,12.78
2019-04-05T16:00:43.710Z,12.50
2019-04-05T16:03:43.699Z,12.77
2019-04-05T16:26:03.159Z,13.72
2019-04-05T16:28:32.271Z,12.63
2019-04-05T16:31:01.846Z,12.30
2019-04-05T16:33:30.416Z,12.53
2019-04-05T16:35:59.163Z,13.18
2019-04-05T16:38:30.902Z,12.40
2019-04-05T16:40:59.760Z,12.20
2019-04-05T16:43:29.399Z,13.30
2019-04-05T16:45:58.152Z,13.53
2019-04-05T16:48:26.672Z,12.90
2019-04-05T16:50:55.562Z,12.20
2019-04-05T16:53:24.411Z,12.33
2019-04-05T16:55:53.724Z,12.23
2019-04-05T16:58:22.423Z,13.40
2019-04-05T17:00:51.139Z,12.63
2019-04-05T17:03:19.930Z,12.37
2019-04-05T17:06:10.230Z,12.78
2019-04-05T17:08:39.304Z,12.35
2019-04-05T17:11:08.603Z,12.40
2019-04-05T17:13:59.505Z,12.03
2019-04-05T17:19:20.967Z,13.38
2019-04-05T17:21:51.250Z,13.20
2019-04-05T17:24:20.968Z,14.53
2019-04-05T17:26:49.777Z,13.08
2019-04-05T17:29:18.673Z,12.78
2019-04-05T17:31:47.480Z,13.08
2019-04-05T17:34:16.340Z,12.25
2019-04-05T17:36:44.997Z,13.68
2019-04-05T17:39:13.699Z,12.85
2019-04-05T17:41:42.703Z,12.55
2019-04-05T17:44:11.809Z,11.83
2019-04-05T17:46:40.611Z,13.25
2019-04-05T17:49:09.351Z,12.50
2019-04-05T17:51:37.875Z,12.37
2019-04-05T17:54:06.527Z,11.88
2019-04-05T17:56:36.353Z,12.05
2019-04-05T17:59:05.263Z,12.58
2019-04-05T18:01:34.185Z,12.03
2019-04-05T18:04:03.108Z,11.93
2019-04-05T18:06:31.936Z,11.73
2019-04-05T18:09:00.736Z,10.50
2019-04-05T18:11:29.502Z,11.65
2019-04-05T18:13:58.578Z,10.70
2019-04-05T18:16:27.526Z,10.53
2019-04-05T18:18:57.619Z,10.17
2019-04-05T18:21:26.430Z,11.28
2019-04-05T18:23:55.043Z,10.78
2019-04-05T18:26:23.810Z,10.60
2019-04-05T18:28:52.426Z,11.30
2019-04-05T18:31:20.971Z,10.90
2019-04-05T18:33:49.791Z,13.08
2019-04-05T18:36:18.358Z,13.83
2019-04-05T18:38:47.855Z,11.18
2019-04-05T18:41:16.808Z,12.00
2019-04-05T18:43:45.471Z,11.70
2019-04-05T18:46:14.135Z,10.53
2019-04-05T18:48:42.887Z,10.15
2019-04-05T18:51:11.708Z,10.85
2019-04-05T18:53:40.627Z,11.08
2019-04-05T18:56:10.412Z,10.05
2019-04-05T18:58:39.294Z,11.50
2019-04-05T19:01:09.459Z,10.63
2019-04-05T19:03:38.184Z,10.55
2019-04-05T19:06:06.864Z,10.85
2019-04-05T19:08:39.865Z,10.32
2019-04-05T19:11:04.811Z,10.28
2019-04-05T19:13:33.492Z,10.30
2019-04-05T19:16:02.200Z,10.70
2019-04-05T19:19:01.251Z,11.10
2019-04-05T19:21:30.055Z,11.68
2019-04-05T19:23:59.001Z,11.38
2019-04-05T19:26:27.695Z,11.18
2019-04-05T19:28:56.507Z,11.05
2019-04-05T19:48:47.354Z,10.05
2019-04-05T19:51:16.075Z,10.53
2019-04-05T19:53:44.775Z,11.10
2019-04-05T19:56:13.759Z,10.68
2019-04-05T19:58:42.471Z,10.65
2019-04-05T20:01:11.106Z,10.30
2019-04-05T20:03:39.706Z,9.85
2019-04-05T20:06:08.433Z,10.18
2019-04-05T20:08:37.283Z,10.25
2019-04-05T20:11:06.099Z,10.53
2019-04-05T20:13:34.966Z,10.20
2019-04-05T20:16:03.514Z,9.13
2019-04-05T20:18:32.374Z,9.73
2019-04-05T20:21:00.974Z,9.50
2019-04-05T20:23:29.543Z,9.28
2019-04-05T20:25:58.837Z,8.25
2019-04-05T20:28:27.784Z,10.00
2019-04-05T20:30:56.403Z,9.83
2019-04-05T20:33:25.279Z,9.48
2019-04-05T20:35:54.204Z,12.10
2019-04-05T20:38:23.120Z,11.10
2019-04-05T20:40:53.775Z,8.98
2019-04-05T20:43:22.688Z,9.58
2019-04-05T20:45:55.811Z,8.48
2019-04-05T20:48:25.922Z,7.97
2019-04-05T20:50:54.735Z,8.73
2019-04-05T20:56:10.321Z,7.67
2019-04-05T20:59:36.467Z,7.95
2019-04-05T21:02:09.316Z,8.30
2019-04-05T21:08:50.588Z,8.45
2019-04-05T21:11:36.152Z,8.03
2019-04-05T21:18:29.750Z,8.08
2019-04-05T21:20:59.134Z,7.25
2019-04-05T21:23:28.010Z,7.50
2019-04-05T21:25:56.894Z,7.90
2019-04-05T21:28:25.846Z,8.13
2019-04-05T21:30:54.706Z,8.05
2019-04-05T21:33:23.758Z,8.23
2019-04-05T21:35:52.683Z,7.90
2019-04-05T21:38:21.487Z,7.70
2019-04-05T21:43:52.038Z,7.67
2019-04-05T21:46:21.230Z,8.28
2019-04-05T22:03:00.649Z,6.92
2019-04-05T22:06:36.677Z,7.37
2019-04-05T22:09:08.721Z,7.10
2019-04-05T22:11:37.773Z,7.80
2019-04-05T22:14:06.828Z,7.08
2019-04-05T22:16:36.085Z,7.47
2019-04-05T22:19:05.493Z,7.33
2019-04-05T22:21:51.957Z,7.97
2019-04-05T22:24:21.609Z,7.05
2019-04-05T22:26:50.600Z,7.50
2019-04-05T22:29:19.976Z,7.60
